Time;durP1;ratioP1;P1;durP2;ratioP2;P2;SDS_P1;SDS_P2;PMS_P1;PMS_P2;Temp;Humidity;BMP_temperature;BMP_pressure;BME280_temperature;BME280_humidity;BME280_pressure;Samples;Min_cycle;Max_cycle;Signal;HPM_P1;HPM_P2
2022/12/06 00:01:21;;;;;;;;;;;;;;;18.18;73.53;101767.81;7402676;19;1818;-37
2022/12/06 00:03:54;;;;;;;;;;;;;;;19.11;70.91;101766.69;7403482;19;1926;-38
2022/12/06 00:06:30;;;;;;;;;;;;;;;19.62;69.09;101761.13;7405463;19;1702;-37
2022/12/06 00:09:20;;;;;;;;;;;;;;;19.65;69.17;101760.88;7404278;19;1808;-37
2022/12/06 00:11:58;;;;;;;;;;;;;;;19.17;70.54;101759.03;7404243;19;1905;-38
2022/12/06 00:17:27;;;;;;;;;;;;;;;19.41;69.58;101769.78;7401781;19;1599;-37
2022/12/06 00:19:59;;;;;;;;;;;;;;;19.71;68.41;101767.59;7404247;19;1864;-36
2022/12/06 00:22:27;;;;;;;;;;;;;;;19.99;67.60;101755.66;7401817;19;1547;-37
2022/12/06 00:25:02;;;;;;;;;;;;;;;20.05;67.25;101756.06;7402809;19;1858;-37
2022/12/06 00:27:37;;;;;;;;;;;;;;;19.84;67.78;101761.22;7404309;19;1855;-37
2022/12/06 00:30:07;;;;;;;;;;;;;;;18.99;70.37;101757.72;7404944;19;2039;-37
2022/12/06 00:32:37;;;;;;;;;;;;;;;18.54;71.98;101758.16;7404618;19;1699;-37
2022/12/06 00:35:10;;;;;;;;;;;;;;;18.23;72.39;101744.25;7404343;19;1818;-37
2022/12/06 00:37:42;;;;;;;;;;;;;;;18.09;72.54;101750.56;7403405;19;1820;-37
2022/12/06 00:40:17;;;;;;;;;;;;;;;18.04;72.12;101754.50;7401565;19;1860;-36
2022/12/06 00:42:52;;;;;;;;;;;;;;;17.95;72.52;101752.50;7403384;19;1936;-38
2022/12/06 00:45:21;;;;;;;;;;;;;;;17.91;72.10;101745.63;7402053;19;1567;-37
2022/12/06 00:47:54;;;;;;;;;;;;;;;17.85;72.48;101739.72;7402703;19;1611;-37
2022/12/06 00:50:24;;;;;;;;;;;;;;;17.79;72.21;101740.09;7403200;19;1907;-37
2022/12/06 00:52:55;;;;;;;;;;;;;;;17.76;71.82;101740.31;7403246;19;2016;-37
2022/12/06 00:55:38;;;;;;;;;;;;;;;17.69;72.17;101731.84;7402655;19;1676;-37
2022/12/06 00:58:06;;;;;;;;;;;;;;;17.66;72.08;101736.53;7402568;19;1673;-37
2022/12/06 01:00:44;;;;;;;;;;;;;;;17.66;72.82;101731.19;7401422;19;1870;-39
2022/12/06 01:03:14;;;;;;;;;;;;;;;17.61;72.52;101736.00;7400630;19;1871;-37
2022/12/06 01:08:56;;;;;;;;;;;;;;;17.61;73.31;101736.84;7400634;19;1904;-38
2022/12/06 01:11:30;;;;;;;;;;;;;;;18.18;71.36;101730.31;7403355;19;1775;-36
2022/12/06 01:14:02;;;;;;;;;;;;;;;19.15;68.21;101725.28;7402033;19;1800;-37
2022/12/06 01:19:16;;;;;;;;;;;;;;;20.01;65.72;101718.81;7400985;19;2009;-37
2022/12/06 01:22:08;;;;;;;;;;;;;;;20.27;65.06;101723.00;7399184;19;1857;-36
2022/12/06 01:24:50;;;;;;;;;;;;;;;20.53;64.45;101714.72;7398751;19;1810;-37
2022/12/06 01:27:25;;;;;;;;;;;;;;;20.50;64.60;101717.63;7399337;19;1698;-37
2022/12/06 01:29:57;;;;;;;;;;;;;;;19.85;66.09;101713.75;7402757;19;1456;-37
2022/12/06 01:32:30;;;;;;;;;;;;;;;19.23;68.47;101723.72;7402049;19;1708;-37
2022/12/06 01:35:10;;;;;;;;;;;;;;;18.83;69.12;101731.16;7401738;19;1952;-36
2022/12/06 01:37:38;;;;;;;;;;;;;;;18.59;70.36;101709.63;7400068;19;1859;-38
2022/12/06 01:40:07;;;;;;;;;;;;;;;18.44;70.81;101719.59;7400958;19;1864;-37
2022/12/06 01:42:41;;;;;;;;;;;;;;;18.33;71.12;101703.47;7401104;19;1884;-37
2022/12/06 01:45:15;;;;;;;;;;;;;;;18.32;71.32;101705.25;7399801;19;1691;-37
2022/12/06 01:47:45;;;;;;;;;;;;;;;18.21;71.31;101703.34;7401403;19;1721;-37
2022/12/06 01:50:31;;;;;;;;;;;;;;;;;;;;;
2022/12/06 01:53:03;;;;;;;;;;;;;;;18.04;72.26;101707.19;7398960;19;1918;-35
2022/12/06 01:55:38;;;;;;;;;;;;;;;17.96;71.99;101703.34;7401696;19;2177;-34
2022/12/06 01:58:23;;;;;;;;;;;;;;;17.96;72.38;101719.41;7402222;19;1843;-34
2022/12/06 02:01:03;;;;;;;;;;;;;;;17.91;72.42;101711.69;7393509;19;1889;-35
2022/12/06 02:03:37;;;;;;;;;;;;;;;17.94;72.78;101715.97;7390259;19;1878;-35
2022/12/06 02:09:05;;;;;;;;;;;;;;;17.81;72.68;101705.22;7393253;19;1540;-35
2022/12/06 02:11:33;;;;;;;;;;;;;;;17.83;72.79;101722.03;7401235;19;1765;-35
2022/12/06 02:14:06;;;;;;;;;;;;;;;17.68;73.51;101695.34;7401012;19;1986;-35
2022/12/06 02:16:42;;;;;;;;;;;;;;;17.66;74.95;101712.47;7399914;19;2084;-35
2022/12/06 02:19:21;;;;;;;;;;;;;;;17.65;75.70;101700.91;7401527;19;1865;-36
2022/12/06 02:21:53;;;;;;;;;;;;;;;18.53;72.24;101702.88;7398409;19;1914;-36
2022/12/06 02:24:37;;;;;;;;;;;;;;;19.21;70.37;101681.91;7396972;19;1874;-35
2022/12/06 02:27:13;;;;;;;;;;;;;;;19.90;68.07;101689.28;7400995;19;2005;-35
2022/12/06 02:29:56;;;;;;;;;;;;;;;19.59;68.70;101691.56;7400394;19;1857;-34
2022/12/06 02:32:32;;;;;;;;;;;;;;;19.95;67.98;101690.59;7399830;19;1822;-35
2022/12/06 02:35:04;;;;;;;;;;;;;;;20.17;67.44;101680.88;7400030;19;1829;-35
2022/12/06 02:37:35;;;;;;;;;;;;;;;20.12;67.49;101677.69;7399817;19;2008;-34
2022/12/06 02:40:05;;;;;;;;;;;;;;;19.29;69.96;101690.25;7400341;19;1900;-35
2022/12/06 02:42:36;;;;;;;;;;;;;;;18.69;71.37;101689.25;7400725;19;1905;-34
2022/12/06 02:45:06;;;;;;;;;;;;;;;18.34;72.92;101689.09;7400597;19;1985;-34
2022/12/06 02:47:38;;;;;;;;;;;;;;;18.14;73.76;101691.34;7400749;19;1551;-34
2022/12/06 02:50:09;;;;;;;;;;;;;;;17.98;73.81;101685.34;7399790;19;1870;-35
2022/12/06 02:52:39;;;;;;;;;;;;;;;17.88;74.00;101677.09;7399326;19;1929;-34
2022/12/06 02:55:09;;;;;;;;;;;;;;;17.80;74.06;101687.44;7399876;19;1963;-35
2022/12/06 02:57:41;;;;;;;;;;;;;;;17.73;74.12;101692.38;7400067;19;1990;-35
2022/12/06 03:02:46;;;;;;;;;;;;;;;17.64;74.27;101693.84;7398618;19;1435;-63
2022/12/06 03:05:21;;;;;;;;;;;;;;;17.58;74.16;101685.38;7403099;19;1629;-69
2022/12/06 03:07:50;;;;;;;;;;;;;;;17.54;74.10;101694.56;7402992;19;1586;-69
2022/12/06 03:10:35;;;;;;;;;;;;;;;17.48;74.39;101685.13;7402150;19;1497;-69
2022/12/06 03:13:06;;;;;;;;;;;;;;;17.45;74.26;101678.19;7402792;19;1613;-62
2022/12/06 03:15:40;;;;;;;;;;;;;;;17.41;74.54;101684.72;7403819;19;1411;-69
2022/12/06 03:18:17;;;;;;;;;;;;;;;17.39;73.88;101662.56;7403108;19;1706;-62
2022/12/06 03:20:47;;;;;;;;;;;;;;;17.86;72.82;101687.91;7401783;19;1853;-68
2022/12/06 03:23:18;;;;;;;;;;;;;;;18.72;70.16;101659.56;7404089;19;1629;-62
2022/12/06 03:25:47;;;;;;;;;;;;;;;19.36;68.54;101658.44;7402754;19;1544;-62
2022/12/06 03:28:17;;;;;;;;;;;;;;;19.51;67.90;101656.44;7403294;19;1628;-63
2022/12/06 03:30:49;;;;;;;;;;;;;;;19.41;68.06;101653.59;7402959;19;1474;-69
2022/12/06 03:33:21;;;;;;;;;;;;;;;19.74;67.25;101655.56;7403308;19;1482;-62
2022/12/06 03:35:51;;;;;;;;;;;;;;;19.90;66.92;101649.84;7402354;19;1648;-69
2022/12/06 03:38:22;;;;;;;;;;;;;;;19.90;66.52;101619.47;7408471;19;1555;-68
2022/12/06 03:40:53;;;;;;;;;;;;;;;20.13;66.37;101658.75;7408021;19;1859;-69
2022/12/06 03:43:22;;;;;;;;;;;;;;;20.13;65.97;101639.97;7409450;19;1633;-63
2022/12/06 03:45:54;;;;;;;;;;;;;;;20.04;65.99;101654.13;7408640;19;1585;-63
2022/12/06 03:48:28;;;;;;;;;;;;;;;19.63;67.64;101639.38;7410118;19;1699;-63
2022/12/06 03:51:00;;;;;;;;;;;;;;;18.92;69.35;101644.75;7409804;19;1463;-69
2022/12/06 03:53:28;;;;;;;;;;;;;;;18.44;70.99;101644.63;7410427;19;1463;-63
2022/12/06 03:55:56;;;;;;;;;;;;;;;18.19;72.03;101659.75;7408713;19;1461;-68
2022/12/06 03:58:25;;;;;;;;;;;;;;;18.02;72.44;101638.69;7408312;19;1606;-69
2022/12/06 04:00:53;;;;;;;;;;;;;;;17.86;72.36;101655.78;7407412;19;1867;-69
2022/12/06 04:03:21;;;;;;;;;;;;;;;17.79;72.45;101648.28;7408106;19;1548;-62
2022/12/06 04:05:52;;;;;;;;;;;;;;;17.70;72.84;101642.59;7409038;19;1637;-69
2022/12/06 04:08:20;;;;;;;;;;;;;;;17.68;73.30;101636.50;7409634;19;1530;-62
2022/12/06 04:10:49;;;;;;;;;;;;;;;17.61;72.99;101659.28;7408188;19;1638;-69
2022/12/06 04:13:17;;;;;;;;;;;;;;;17.56;73.04;101652.53;7404565;19;1737;-63
2022/12/06 04:15:46;;;;;;;;;;;;;;;17.53;73.15;101642.03;7407765;19;1621;-69
2022/12/06 04:18:13;;;;;;;;;;;;;;;17.50;73.08;101648.44;7408137;19;1581;-62
2022/12/06 04:23:25;;;;;;;;;;;;;;;17.42;73.66;101651.66;7409461;19;1261;-62
2022/12/06 04:25:54;;;;;;;;;;;;;;;17.39;73.70;101656.34;7408745;19;1475;-69
2022/12/06 04:39:08;;;;;;;;;;;;;;;19.39;67.26;101642.97;7407555;19;1586;-69
2022/12/06 04:44:17;;;;;;;;;;;;;;;20.08;65.33;101639.50;7406952;19;1476;-62
2022/12/06 04:46:45;;;;;;;;;;;;;;;20.11;65.89;101631.19;7407111;19;1362;-65
2022/12/06 04:49:13;;;;;;;;;;;;;;;19.98;66.20;101631.31;7405134;19;1733;-68
2022/12/06 04:51:41;;;;;;;;;;;;;;;20.16;66.41;101634.38;7406337;19;1609;-64
2022/12/06 04:54:12;;;;;;;;;;;;;;;20.15;65.62;101656.81;7405823;19;1681;-65
2022/12/06 04:56:41;;;;;;;;;;;;;;;20.17;65.51;101651.31;7406520;19;1685;-63
2022/12/06 04:59:09;;;;;;;;;;;;;;;19.50;67.68;101630.56;7406197;19;1640;-64
2022/12/06 05:01:38;;;;;;;;;;;;;;;18.87;68.59;101646.88;7398187;19;1839;-64
2022/12/06 05:04:06;;;;;;;;;;;;;;;18.36;69.25;101653.19;7406024;19;1364;-64
2022/12/06 05:06:34;;;;;;;;;;;;;;;18.18;70.88;101658.03;7397782;19;1319;-64
2022/12/06 05:09:03;;;;;;;;;;;;;;;18.00;70.91;101657.50;7400590;19;1428;-64
2022/12/06 05:11:34;;;;;;;;;;;;;;;17.95;71.19;101661.50;7404155;19;935;-64
2022/12/06 05:14:02;;;;;;;;;;;;;;;17.84;71.49;101647.03;7401755;19;1673;-63
2022/12/06 05:16:31;;;;;;;;;;;;;;;17.76;71.53;101644.00;7403014;19;1388;-63
2022/12/06 05:18:59;;;;;;;;;;;;;;;17.70;71.90;101647.09;7402177;19;1504;-64
2022/12/06 05:21:27;;;;;;;;;;;;;;;17.67;72.25;101658.00;7403154;19;1848;-63
2022/12/06 05:23:56;;;;;;;;;;;;;;;17.61;72.34;101651.25;7406277;19;1341;-64
2022/12/06 05:26:26;;;;;;;;;;;;;;;17.57;72.09;101635.53;7407322;19;1001;-65
2022/12/06 05:28:58;;;;;;;;;;;;;;;17.55;72.43;101637.44;7404957;19;1658;-64
2022/12/06 05:31:26;;;;;;;;;;;;;;;17.50;72.46;101646.63;7404764;19;1587;-63
2022/12/06 05:33:55;;;;;;;;;;;;;;;17.48;72.40;101637.84;7406127;19;1782;-64
2022/12/06 05:36:24;;;;;;;;;;;;;;;17.42;72.47;101634.75;7406910;19;1541;-64
2022/12/06 05:38:53;;;;;;;;;;;;;;;17.41;72.62;101631.22;7407388;19;968;-64
2022/12/06 05:41:22;;;;;;;;;;;;;;;17.90;70.63;101635.03;7406610;19;1860;-63
2022/12/06 05:43:50;;;;;;;;;;;;;;;18.89;67.73;101639.59;7404287;19;1744;-64
2022/12/06 05:46:21;;;;;;;;;;;;;;;19.52;65.94;101648.28;7404609;19;1435;-65
2022/12/06 05:48:49;;;;;;;;;;;;;;;19.51;65.82;101641.19;7406679;19;1605;-63
2022/12/06 05:51:18;;;;;;;;;;;;;;;19.42;66.83;101625.81;7405961;19;1437;-64
2022/12/06 05:53:46;;;;;;;;;;;;;;;19.82;65.92;101610.19;7405239;19;1309;-64
2022/12/06 05:58:57;;;;;;;;;;;;;;;19.23;67.65;101611.09;7399119;19;1475;-65
2022/12/06 06:01:28;;;;;;;;;;;;;;;18.79;69.50;101612.63;7404943;19;1851;-64
2022/12/06 06:03:57;;;;;;;;;;;;;;;18.52;70.37;101628.84;7405585;19;1504;-64
2022/12/06 06:06:25;;;;;;;;;;;;;;;18.27;71.25;101637.81;7405538;19;1382;-64
2022/12/06 06:08:53;;;;;;;;;;;;;;;18.11;71.78;101638.03;7405232;19;1348;-64
2022/12/06 06:11:22;;;;;;;;;;;;;;;18.06;71.86;101651.75;7406576;19;1000;-65
2022/12/06 06:13:50;;;;;;;;;;;;;;;18.03;72.02;101651.97;7403523;19;1724;-64
2022/12/06 06:16:19;;;;;;;;;;;;;;;18.00;72.42;101637.94;7403858;19;1362;-64
2022/12/06 06:18:50;;;;;;;;;;;;;;;18.06;72.38;101641.06;7405499;19;1542;-65
2022/12/06 06:21:18;;;;;;;;;;;;;;;18.17;71.86;101647.47;7403205;19;1870;-62
2022/12/06 06:23:46;;;;;;;;;;;;;;;18.11;72.04;101638.03;7404716;19;1534;-75
2022/12/06 06:26:14;;;;;;;;;;;;;;;18.09;72.37;101651.53;7406521;19;991;-59
2022/12/06 06:28:43;;;;;;;;;;;;;;;18.04;73.35;101632.25;7402798;19;1698;-66
2022/12/06 06:31:11;;;;;;;;;;;;;;;18.00;73.89;101624.53;7405489;19;1606;-64
2022/12/06 06:33:39;;;;;;;;;;;;;;;18.03;75.00;101627.03;7405483;19;1024;-68
2022/12/06 06:36:11;;;;;;;;;;;;;;;18.02;75.42;101626.16;7405376;19;1427;-67
2022/12/06 06:38:39;;;;;;;;;;;;;;;18.01;76.85;101627.13;7405326;19;1338;-64
2022/12/06 06:41:08;;;;;;;;;;;;;;;18.82;74.08;101612.41;7403287;19;1702;-64
2022/12/06 06:43:36;;;;;;;;;;;;;;;19.71;71.64;101599.41;7400432;19;1846;-65
2022/12/06 06:46:07;;;;;;;;;;;;;;;20.35;68.82;101609.59;7404649;19;1645;-65
2022/12/06 06:48:36;;;;;;;;;;;;;;;20.30;68.74;101608.25;7404569;19;1354;-65
2022/12/06 06:51:05;;;;;;;;;;;;;;;19.81;70.13;101615.66;7404320;19;1417;-67
2022/12/06 06:53:37;;;;;;;;;;;;;;;20.13;69.07;101610.44;7404305;19;1512;-66
2022/12/06 06:56:05;;;;;;;;;;;;;;;20.53;67.85;101606.34;7405593;19;997;-65
2022/12/06 06:58:33;;;;;;;;;;;;;;;20.50;67.53;101610.16;7401892;19;1726;-64
2022/12/06 07:01:04;;;;;;;;;;;;;;;20.55;67.40;101613.34;7403066;19;1517;-66
2022/12/06 07:03:33;;;;;;;;;;;;;;;20.59;67.39;101612.13;7402070;19;1874;-68
2022/12/06 07:06:02;;;;;;;;;;;;;;;20.59;66.86;101585.28;7405116;19;1562;-66
2022/12/06 07:08:31;;;;;;;;;;;;;;;20.54;67.08;101600.88;7404085;19;1893;-71
2022/12/06 07:11:02;;;;;;;;;;;;;;;20.45;67.28;101588.16;7406388;19;1015;-74
2022/12/06 07:13:31;;;;;;;;;;;;;;;20.49;67.41;101605.75;7409469;19;1554;-67
2022/12/06 07:15:59;;;;;;;;;;;;;;;20.51;67.21;101611.84;7411539;19;1338;-67
2022/12/06 07:18:28;;;;;;;;;;;;;;;20.49;67.17;101584.25;7411281;19;1444;-71
2022/12/06 07:21:02;;;;;;;;;;;;;;;20.42;66.89;101583.06;7409971;19;1318;-63
2022/12/06 07:23:30;;;;;;;;;;;;;;;20.45;66.67;101594.44;7409235;19;1853;-65
2022/12/06 07:26:05;;;;;;;;;;;;;;;20.64;66.18;101596.47;7412539;19;916;-67
2022/12/06 07:28:34;;;;;;;;;;;;;;;20.70;65.88;101594.28;7408875;19;1665;-68
2022/12/06 07:31:09;;;;;;;;;;;;;;;20.52;66.25;101594.75;7411009;19;1603;-68
2022/12/06 07:33:37;;;;;;;;;;;;;;;20.41;66.47;101603.72;7411930;19;947;-68
2022/12/06 07:36:06;;;;;;;;;;;;;;;20.49;66.27;101611.13;7411577;19;1780;-79
2022/12/06 07:38:34;;;;;;;;;;;;;;;20.59;65.75;101609.44;7411886;19;1374;-76
2022/12/06 07:44:59;;;;;;;;;;;;;;;20.60;65.42;101605.78;7411119;19;1753;-66
2022/12/06 07:46:36;;;;;;;;;;;;;;;20.59;65.72;101606.75;7410008;19;1357;-73
2022/12/06 07:49:05;;;;;;;;;;;;;;;20.70;65.34;101613.94;7409883;19;1500;-68
2022/12/06 07:51:33;;;;;;;;;;;;;;;20.68;65.26;101598.91;7411258;19;1546;-67
2022/12/06 07:54:02;;;;;;;;;;;;;;;20.62;65.42;101594.91;7410146;19;1416;-66
2022/12/06 07:56:33;;;;;;;;;;;;;;;20.65;65.27;101600.88;7410992;19;1015;-69
2022/12/06 07:59:01;;;;;;;;;;;;;;;20.78;65.15;101611.47;7408495;19;1468;-68
2022/12/06 08:01:30;;;;;;;;;;;;;;;20.77;65.16;101592.75;7406894;19;1450;-69
2022/12/06 08:04:00;;;;;;;;;;;;;;;20.70;65.29;101599.66;7407511;19;1853;-65
2022/12/06 08:06:28;;;;;;;;;;;;;;;20.68;65.38;101588.19;7410358;19;1547;-63
2022/12/06 08:08:56;;;;;;;;;;;;;;;20.79;65.26;101590.81;7409691;19;1348;-66
2022/12/06 08:11:25;;;;;;;;;;;;;;;20.88;64.83;101573.91;7409178;19;1408;-63
2022/12/06 08:13:56;;;;;;;;;;;;;;;20.75;65.24;101578.59;7408073;19;1650;-67
2022/12/06 08:16:24;;;;;;;;;;;;;;;20.75;65.36;101573.22;7407971;19;1708;-68
2022/12/06 08:18:52;;;;;;;;;;;;;;;20.84;65.15;101569.78;7407630;19;1352;-66
2022/12/06 08:21:21;;;;;;;;;;;;;;;20.89;64.92;101567.56;7408537;19;1538;-67
2022/12/06 08:23:49;;;;;;;;;;;;;;;20.88;64.94;101575.75;7403955;19;1850;-66
2022/12/06 08:26:18;;;;;;;;;;;;;;;20.83;64.98;101576.13;7410683;19;944;-77
2022/12/06 08:28:46;;;;;;;;;;;;;;;20.83;65.30;101598.50;7407037;19;1564;-73
2022/12/06 08:31:18;;;;;;;;;;;;;;;20.96;64.84;101581.34;7408422;19;1577;-69
2022/12/06 08:33:47;;;;;;;;;;;;;;;20.95;64.61;101582.31;7407091;19;1514;-65
2022/12/06 08:36:18;;;;;;;;;;;;;;;20.79;65.27;101586.31;7410370;19;969;-73
2022/12/06 08:38:48;;;;;;;;;;;;;;;20.78;65.38;101587.28;7409657;19;1779;-73
2022/12/06 08:43:58;;;;;;;;;;;;;;;20.77;65.02;101582.91;7405787;19;1849;-73
2022/12/06 08:46:30;;;;;;;;;;;;;;;20.69;65.13;101579.13;7407426;19;1629;-62
2022/12/06 08:48:58;;;;;;;;;;;;;;;20.69;65.29;101584.50;7404551;19;1431;-62
2022/12/06 08:51:26;;;;;;;;;;;;;;;20.76;64.84;101564.19;7408689;19;1637;-74
2022/12/06 08:53:55;;;;;;;;;;;;;;;20.76;64.96;101577.63;7409131;19;1340;-62
2022/12/06 08:56:24;;;;;;;;;;;;;;;20.63;65.20;101557.16;7408859;19;1063;-62
2022/12/06 08:58:53;;;;;;;;;;;;;;;20.55;65.46;101564.97;7405931;19;1654;-74
2022/12/06 09:01:24;;;;;;;;;;;;;;;20.66;65.39;101559.56;7405848;19;1574;-73
2022/12/06 09:03:55;;;;;;;;;;;;;;;20.83;64.73;101538.50;7407101;19;1866;-62
2022/12/06 09:06:23;;;;;;;;;;;;;;;20.68;65.09;101529.88;7408794;19;1524;-62
2022/12/06 09:08:52;;;;;;;;;;;;;;;20.65;65.35;101539.06;7407183;19;1352;-73
2022/12/06 09:11:20;;;;;;;;;;;;;;;20.82;64.99;101536.81;7408896;19;1450;-61
2022/12/06 09:13:49;;;;;;;;;;;;;;;20.90;64.62;101522.72;7406276;19;1321;-64
2022/12/06 09:16:18;;;;;;;;;;;;;;;20.86;64.39;101524.81;7404927;19;1598;-73
2022/12/06 09:18:47;;;;;;;;;;;;;;;20.84;65.16;101534.84;7407972;19;1537;-67
2022/12/06 09:21:20;;;;;;;;;;;;;;;20.91;64.92;101510.97;7406655;19;1286;-70
2022/12/06 09:23:48;;;;;;;;;;;;;;;21.06;64.69;101517.75;7405385;19;1869;-78
2022/12/06 09:26:17;;;;;;;;;;;;;;;20.79;65.27;101516.41;7409346;19;980;-71
2022/12/06 09:28:48;;;;;;;;;;;;;;;19.99;67.81;101536.34;7405495;19;1784;-64
2022/12/06 09:31:18;;;;;;;;;;;;;;;19.45;69.62;101515.59;7406533;19;1437;-77
2022/12/06 09:33:46;;;;;;;;;;;;;;;19.18;70.03;101511.41;7407476;19;1564;-63
2022/12/06 09:36:20;;;;;;;;;;;;;;;19.02;69.97;101519.78;7408355;19;927;-63
2022/12/06 09:38:49;;;;;;;;;;;;;;;18.92;70.69;101513.41;7408247;19;1011;-63
2022/12/06 09:41:27;;;;;;;;;;;;;;;18.89;71.12;101510.94;7406797;19;1668;-63
2022/12/06 09:44:04;;;;;;;;;;;;;;;18.80;71.28;101508.97;7404310;19;1857;-63
2022/12/06 09:46:42;;;;;;;;;;;;;;;18.70;71.63;101490.00;7403975;19;1330;-63
2022/12/06 09:49:23;;;;;;;;;;;;;;;18.66;71.50;101470.66;7405624;19;1507;-77
2022/12/06 09:52:03;;;;;;;;;;;;;;;18.67;71.45;101484.91;7403985;19;1546;-77
2022/12/06 09:54:40;;;;;;;;;;;;;;;18.62;71.44;101481.69;7405755;19;1658;-78
2022/12/06 09:57:09;;;;;;;;;;;;;;;18.56;71.59;101460.72;7406294;19;1389;-63
2022/12/06 09:59:47;;;;;;;;;;;;;;;18.50;71.78;101467.41;7405994;19;1499;-63
2022/12/06 10:02:26;;;;;;;;;;;;;;;18.48;71.40;101466.66;7404729;19;1439;-64
2022/12/06 10:05:10;;;;;;;;;;;;;;;18.42;70.58;101453.72;7406509;19;1542;-64
2022/12/06 10:07:47;;;;;;;;;;;;;;;18.22;70.67;101456.09;7405862;19;1445;-73
2022/12/06 10:10:20;;;;;;;;;;;;;;;18.21;70.45;101448.16;7406424;19;1570;-64
2022/12/06 10:12:57;;;;;;;;;;;;;;;18.24;71.00;101440.78;7404421;19;1594;-64
2022/12/06 10:15:32;;;;;;;;;;;;;;;18.27;70.58;101445.03;7406505;19;1323;-63
2022/12/06 10:18:08;;;;;;;;;;;;;;;18.22;70.37;101448.06;7406100;19;1055;-72
2022/12/06 10:20:43;;;;;;;;;;;;;;;18.21;70.82;101450.84;7405682;19;1048;-64
2022/12/06 10:23:20;;;;;;;;;;;;;;;18.18;71.38;101449.22;7405999;19;1842;-64
2022/12/06 10:26:03;;;;;;;;;;;;;;;18.20;71.13;101438.41;7406429;19;1686;-74
2022/12/06 10:28:39;;;;;;;;;;;;;;;18.16;71.32;101435.09;7403620;19;1670;-74
2022/12/06 10:31:12;;;;;;;;;;;;;;;18.12;71.67;101435.47;7405569;19;1409;-74
2022/12/06 10:33:46;;;;;;;;;;;;;;;18.08;71.40;101435.69;7405583;19;1008;-64
2022/12/06 10:36:17;;;;;;;;;;;;;;;18.16;71.57;101436.94;7406360;19;1060;-64
2022/12/06 10:38:52;;;;;;;;;;;;;;;18.13;71.45;101421.97;7405616;19;1756;-74
2022/12/06 10:41:22;;;;;;;;;;;;;;;18.10;71.72;101440.91;7405366;19;1775;-64
2022/12/06 10:43:54;;;;;;;;;;;;;;;18.05;71.98;101429.72;7402003;19;1853;-64
2022/12/06 10:49:10;;;;;;;;;;;;;;;18.12;71.83;101414.03;7406219;19;1244;-64
2022/12/06 10:51:42;;;;;;;;;;;;;;;18.04;71.92;101396.72;7403041;19;1365;-64
2022/12/06 10:54:21;;;;;;;;;;;;;;;17.94;71.71;101416.25;7404015;19;1433;-64
2022/12/06 10:56:51;;;;;;;;;;;;;;;17.93;72.12;101417.25;7405726;19;984;-73
2022/12/06 10:59:25;;;;;;;;;;;;;;;18.06;71.39;101410.00;7403886;19;1586;-65
2022/12/06 11:01:55;;;;;;;;;;;;;;;18.02;70.94;101400.50;7402999;19;1445;-72
2022/12/06 11:04:25;;;;;;;;;;;;;;;17.99;71.21;101408.75;7403535;19;1867;-72
2022/12/06 11:06:57;;;;;;;;;;;;;;;17.96;71.98;101408.97;7402854;19;1341;-68
2022/12/06 11:09:32;;;;;;;;;;;;;;;18.05;72.06;101378.88;7403097;19;1310;-64
2022/12/06 11:12:00;;;;;;;;;;;;;;;18.07;72.32;101384.97;7403823;19;1047;-63
2022/12/06 11:14:33;;;;;;;;;;;;;;;18.04;72.57;101390.53;7403797;19;1748;-65
2022/12/06 11:17:05;;;;;;;;;;;;;;;17.99;72.95;101382.84;7404255;19;1618;-63
2022/12/06 11:19:35;;;;;;;;;;;;;;;18.11;72.64;101381.09;7403684;19;1333;-62
2022/12/06 11:22:10;;;;;;;;;;;;;;;18.20;72.58;101380.38;7402618;19;1507;-64
2022/12/06 11:24:44;;;;;;;;;;;;;;;18.05;72.71;101370.84;7401266;19;1859;-62
2022/12/06 11:27:15;;;;;;;;;;;;;;;18.03;72.64;101367.41;7403354;19;957;-64
2022/12/06 11:29:44;;;;;;;;;;;;;;;18.01;72.92;101369.38;7403221;19;1676;-64
2022/12/06 11:32:14;;;;;;;;;;;;;;;17.99;72.98;101349.88;7403400;19;1373;-61
2022/12/06 11:34:46;;;;;;;;;;;;;;;18.05;73.06;101360.13;7403843;19;1543;-61
2022/12/06 11:37:17;;;;;;;;;;;;;;;17.99;73.31;101363.28;7399736;19;1555;-70
2022/12/06 11:39:49;;;;;;;;;;;;;;;17.98;72.93;101354.38;7401458;19;1431;-65
2022/12/06 11:42:20;;;;;;;;;;;;;;;18.01;72.96;101331.91;7401799;19;1430;-65
2022/12/06 11:44:50;;;;;;;;;;;;;;;17.99;73.25;101355.25;7401073;19;1849;-65
2022/12/06 11:47:20;;;;;;;;;;;;;;;18.00;73.08;101319.47;7402428;19;1604;-65
2022/12/06 11:49:50;;;;;;;;;;;;;;;17.94;73.23;101333.31;7403101;19;1352;-62
2022/12/06 11:52:21;;;;;;;;;;;;;;;17.94;73.37;101327.97;7403161;19;1519;-65
2022/12/06 11:54:55;;;;;;;;;;;;;;;18.04;72.94;101337.00;7402420;19;1357;-63
2022/12/06 11:57:25;;;;;;;;;;;;;;;18.01;73.18;101331.91;7404611;19;981;-67
2022/12/06 12:00:11;;;;;;;;;;;;;;;17.89;73.31;101313.09;7409821;19;1503;-62
2022/12/06 12:02:39;;;;;;;;;;;;;;;17.91;73.47;101307.66;7407590;19;1688;-65
2022/12/06 12:05:12;;;;;;;;;;;;;;;17.98;73.25;101310.69;7407339;19;1853;-62
2022/12/06 12:07:42;;;;;;;;;;;;;;;18.01;73.08;101315.84;7409519;19;1414;-62
2022/12/06 12:10:26;;;;;;;;;;;;;;;17.99;73.22;101317.78;7409926;19;1353;-62
2022/12/06 12:15:38;;;;;;;;;;;;;;;18.03;73.09;101321.94;7411533;19;1542;-62
2022/12/06 12:18:07;;;;;;;;;;;;;;;18.04;72.79;101315.59;7409710;19;1354;-64
2022/12/06 12:20:38;;;;;;;;;;;;;;;18.04;72.83;101319.09;7409561;19;973;-65
2022/12/06 12:23:07;;;;;;;;;;;;;;;17.92;73.02;101316.50;7409914;19;1598;-62
2022/12/06 12:25:41;;;;;;;;;;;;;;;18.01;73.35;101307.81;7408677;19;1567;-63
2022/12/06 12:28:24;;;;;;;;;;;;;;;18.05;73.93;101312.81;7406177;19;1685;-64
2022/12/06 12:30:54;;;;;;;;;;;;;;;18.12;74.27;101306.97;7408805;19;1543;-63
2022/12/06 12:33:23;;;;;;;;;;;;;;;18.03;74.31;101305.88;7409081;19;1902;-62
2022/12/06 12:35:53;;;;;;;;;;;;;;;18.12;74.19;101298.97;7406348;19;1960;-63
2022/12/06 12:38:25;;;;;;;;;;;;;;;18.21;73.58;101301.78;7408370;19;1573;-81
2022/12/06 12:40:54;;;;;;;;;;;;;;;18.14;73.88;101303.22;7405240;19;1032;-62
2022/12/06 12:43:27;;;;;;;;;;;;;;;18.03;73.87;101297.84;7408668;19;1866;-62
2022/12/06 12:46:16;;;;;;;;;;;;;;;18.05;74.00;101285.19;7408960;19;1535;-73
2022/12/06 12:48:48;;;;;;;;;;;;;;;18.11;73.82;101289.22;7408859;19;1641;-76
2022/12/06 12:51:24;;;;;;;;;;;;;;;18.06;73.77;101278.84;7408483;19;1598;-62
2022/12/06 12:53:55;;;;;;;;;;;;;;;18.04;73.62;101262.91;7408370;19;1353;-62
2022/12/06 12:56:24;;;;;;;;;;;;;;;18.05;73.54;101258.44;7404739;19;1489;-62
2022/12/06 12:58:56;;;;;;;;;;;;;;;18.07;73.49;101260.00;7404203;19;1685;-62
2022/12/06 13:01:31;;;;;;;;;;;;;;;18.03;73.25;101273.75;7406178;19;1558;-75
2022/12/06 13:04:03;;;;;;;;;;;;;;;18.06;73.23;101276.19;7406959;19;1849;-63
2022/12/06 13:06:34;;;;;;;;;;;;;;;17.95;73.66;101260.13;7408165;19;1628;-62
2022/12/06 13:09:04;;;;;;;;;;;;;;;17.93;73.67;101264.72;7405236;19;1511;-71
2022/12/06 13:11:33;;;;;;;;;;;;;;;17.96;73.84;101262.66;7408715;19;1019;-62
2022/12/06 13:14:04;;;;;;;;;;;;;;;17.92;73.86;101269.19;7407357;19;1556;-72
2022/12/06 13:16:36;;;;;;;;;;;;;;;17.88;73.78;101240.97;7407620;19;1364;-74
2022/12/06 13:19:04;;;;;;;;;;;;;;;17.86;73.74;101257.13;7406054;19;1429;-61
2022/12/06 13:21:36;;;;;;;;;;;;;;;17.95;73.67;101260.13;7406600;19;1908;-72
2022/12/06 13:24:09;;;;;;;;;;;;;;;17.93;73.53;101254.88;7405401;19;1842;-62
2022/12/06 13:26:40;;;;;;;;;;;;;;;17.92;73.40;101258.50;7408186;19;1168;-74
2022/12/06 13:29:19;;;;;;;;;;;;;;;17.84;73.74;101261.75;7405915;19;1696;-78
2022/12/06 13:31:50;;;;;;;;;;;;;;;17.85;73.50;101258.13;7406318;19;1547;-76
2022/12/06 13:34:22;;;;;;;;;;;;;;;17.91;73.27;101266.66;7405602;19;1528;-72
2022/12/06 13:36:51;;;;;;;;;;;;;;;17.93;73.23;101259.38;7405817;19;1317;-65
2022/12/06 13:39:34;;;;;;;;;;;;;;;17.82;73.10;101260.13;7406067;19;1277;-68
2022/12/06 13:44:53;;;;;;;;;;;;;;;18.03;72.89;101252.34;7404378;19;1862;-66
2022/12/06 13:47:36;;;;;;;;;;;;;;;18.01;72.61;101262.31;7405570;19;1678;-60
2022/12/06 13:50:06;;;;;;;;;;;;;;;17.96;72.75;101269.81;7405317;19;1513;-73
2022/12/06 13:53:01;;;;;;;;;;;;;;;17.93;72.72;101275.44;7405969;19;1372;-75
2022/12/06 13:58:38;;;;;;;;;;;;;;;17.99;72.55;101267.78;7404696;19;1467;-61
2022/12/06 14:01:33;;;;;;;;;;;;;;;17.88;72.65;101276.59;7404066;19;1498;-61